Time;durP1;ratioP1;P1;durP2;ratioP2;P2;SDS_P1;SDS_P2;PMS_P1;PMS_P2;Temp;Humidity;BMP_temperature;BMP_pressure;BME280_temperature;BME280_humidity;BME280_pressure;Samples;Min_cycle;Max_cycle;Signal;HPM_P1;HPM_P2
2023/04/27 00:01:11;;;;;;;4.88;3.33;;;5.20;99.90;;;;;;5017438;28;20038;-67
2023/04/27 00:03:37;;;;;;;8.05;3.45;;;5.20;99.90;;;;;;5017449;28;20026;-67
2023/04/27 00:06:03;;;;;;;7.72;3.97;;;5.30;99.90;;;;;;5017127;28;20026;-67
2023/04/27 00:08:28;;;;;;;7.18;3.60;;;5.30;99.90;;;;;;5017411;28;20052;-67
2023/04/27 00:10:55;;;;;;;6.30;3.17;;;5.30;99.90;;;;;;5017358;28;20426;-67
2023/04/27 00:13:21;;;;;;;4.80;3.28;;;5.30;99.90;;;;;;4999655;28;20025;-67
2023/04/27 00:15:47;;;;;;;8.25;3.97;;;5.30;99.90;;;;;;5016799;28;20030;-67
2023/04/27 00:18:13;;;;;;;5.85;2.90;;;5.30;99.90;;;;;;5017480;28;20133;-67
2023/04/27 00:20:39;;;;;;;4.28;3.05;;;5.30;99.90;;;;;;4999500;28;20541;-67
2023/04/27 00:23:05;;;;;;;5.50;3.65;;;5.30;99.90;;;;;;5017098;28;20026;-67
2023/04/27 00:25:31;;;;;;;4.75;2.72;;;5.30;99.90;;;;;;5017260;28;20080;-67
2023/04/27 00:27:57;;;;;;;5.43;3.40;;;5.30;99.90;;;;;;5017244;28;20484;-67
2023/04/27 00:30:22;;;;;;;5.28;3.63;;;5.20;99.90;;;;;;5000022;28;20026;-67
2023/04/27 00:32:48;;;;;;;6.75;2.97;;;5.20;99.90;;;;;;5017111;28;20033;-67
2023/04/27 00:35:14;;;;;;;4.60;2.90;;;5.20;99.90;;;;;;5016935;28;20049;-67
2023/04/27 00:37:39;;;;;;;6.20;2.97;;;5.20;99.90;;;;;;5016845;28;20033;-67
2023/04/27 00:40:06;;;;;;;6.47;3.75;;;5.20;99.90;;;;;;4999237;28;20056;-67
2023/04/27 00:42:32;;;;;;;7.35;3.13;;;5.20;99.90;;;;;;5016733;28;20072;-67
2023/04/27 00:44:58;;;;;;;9.82;3.58;;;5.20;99.90;;;;;;5016445;28;20053;-67
2023/04/27 00:47:24;;;;;;;7.13;2.92;;;5.20;99.90;;;;;;5016658;28;20522;-67
2023/04/27 00:49:50;;;;;;;6.72;3.70;;;5.20;99.90;;;;;;5016624;28;20105;-67
2023/04/27 00:52:17;;;;;;;7.50;3.20;;;5.10;99.90;;;;;;5016826;28;20117;-67
2023/04/27 00:54:43;;;;;;;6.47;3.30;;;5.10;99.90;;;;;;5016455;28;20409;-67
2023/04/27 00:57:09;;;;;;;5.40;3.10;;;5.00;99.90;;;;;;5016744;28;20355;-67
2023/04/27 00:59:35;;;;;;;4.20;3.55;;;5.00;99.90;;;;;;4998857;28;20033;-67
2023/04/27 01:02:01;;;;;;;7.63;3.25;;;5.00;99.90;;;;;;5016339;28;20034;-67
2023/04/27 01:04:28;;;;;;;7.93;3.30;;;4.90;99.90;;;;;;4998779;28;20452;-67
2023/04/27 01:06:54;;;;;;;5.70;3.13;;;4.90;99.90;;;;;;4998664;28;20022;-67
2023/04/27 01:09:20;;;;;;;5.90;3.13;;;4.90;99.90;;;;;;5015748;28;20030;-67
2023/04/27 01:11:46;;;;;;;8.43;3.40;;;4.80;99.90;;;;;;5016426;28;20061;-67
2023/04/27 01:14:12;;;;;;;6.68;3.13;;;4.80;99.90;;;;;;5016198;28;20033;-67
2023/04/27 01:16:37;;;;;;;7.10;3.22;;;4.80;99.90;;;;;;5016097;28;20402;-67
2023/04/27 01:19:03;;;;;;;4.93;3.20;;;4.80;99.90;;;;;;4998690;28;20034;-67
2023/04/27 01:21:29;;;;;;;12.20;4.13;;;4.70;99.90;;;;;;5015663;28;20049;-67
2023/04/27 01:23:55;;;;;;;9.48;4.05;;;4.90;99.90;;;;;;5015985;28;20030;-67
2023/04/27 01:26:21;;;;;;;8.15;3.25;;;4.70;99.90;;;;;;5015997;28;20034;-67
2023/04/27 01:28:47;;;;;;;5.30;4.35;;;4.60;99.90;;;;;;5016183;28;20033;-67
2023/04/27 01:31:13;;;;;;;7.53;3.53;;;4.60;99.90;;;;;;5015842;28;20037;-67
2023/04/27 01:33:40;;;;;;;6.78;3.25;;;4.50;99.90;;;;;;5015538;28;20473;-67
2023/04/27 01:36:07;;;;;;;5.88;3.47;;;4.40;99.90;;;;;;4998198;28;20048;-67
2023/04/27 01:38:33;;;;;;;9.50;3.65;;;4.40;99.90;;;;;;4998219;28;20378;-67
2023/04/27 01:41:02;;;;;;;3.63;3.15;;;4.30;99.90;;;;;;4997946;28;20038;-67
2023/04/27 01:43:28;;;;;;;9.00;3.47;;;4.20;99.90;;;;;;5015323;28;20390;-67
2023/04/27 01:45:54;;;;;;;6.85;3.90;;;4.10;99.90;;;;;;5015293;28;20054;-67
2023/04/27 01:48:21;;;;;;;11.55;3.60;;;4.00;99.90;;;;;;5015549;28;20438;-67
2023/04/27 01:50:46;;;;;;;7.38;3.88;;;4.00;99.90;;;;;;5015472;28;20480;-67
2023/04/27 01:53:12;;;;;;;5.53;3.15;;;3.90;99.90;;;;;;4997569;28;20030;-67
2023/04/27 01:55:38;;;;;;;4.63;3.53;;;3.80;99.90;;;;;;5015387;28;20061;-67
2023/04/27 01:58:03;;;;;;;6.75;3.70;;;3.70;99.90;;;;;;4997752;28;20022;-67
2023/04/27 02:00:29;;;;;;;4.00;3.50;;;3.60;99.90;;;;;;5015210;28;20030;-67
2023/04/27 02:02:56;;;;;;;6.53;3.40;;;3.50;99.90;;;;;;5015267;28;20058;-67
2023/04/27 02:05:22;;;;;;;9.98;3.75;;;3.50;99.90;;;;;;4997592;28;20026;-67
2023/04/27 02:07:48;;;;;;;11.40;3.92;;;3.50;99.90;;;;;;5015195;28;20026;-67
2023/04/27 02:10:14;;;;;;;5.78;3.65;;;3.40;99.90;;;;;;5015398;28;20409;-67
2023/04/27 02:12:40;;;;;;;6.93;3.45;;;3.40;99.90;;;;;;5015109;28;20037;-67
2023/04/27 02:15:07;;;;;;;6.60;3.42;;;3.40;99.90;;;;;;4997556;28;20041;-67
2023/04/27 02:17:37;;;;;;;5.47;3.55;;;3.40;99.90;;;;;;5015095;28;20113;-68
2023/04/27 02:20:05;;;;;;;7.65;4.05;;;3.40;99.90;;;;;;4997216;28;20057;-67
2023/04/27 02:22:31;;;;;;;7.15;3.33;;;3.30;99.90;;;;;;4997471;28;20034;-67
2023/04/27 02:24:57;;;;;;;6.15;4.00;;;3.30;99.90;;;;;;5015197;28;20113;-67
2023/04/27 02:27:23;;;;;;;5.97;3.63;;;3.30;99.90;;;;;;5014976;28;20041;-67
2023/04/27 02:29:49;;;;;;;13.02;4.40;;;3.20;99.90;;;;;;4997469;28;20038;-67
2023/04/27 02:32:14;;;;;;;5.70;4.05;;;3.20;99.90;;;;;;5015052;28;20109;-67
2023/04/27 02:34:40;;;;;;;4.65;3.70;;;3.20;99.90;;;;;;5015037;28;20359;-67
2023/04/27 02:37:06;;;;;;;5.30;3.30;;;3.10;99.90;;;;;;5014664;28;20157;-67
2023/04/27 02:39:32;;;;;;;9.73;3.78;;;3.10;99.90;;;;;;5014920;28;20030;-67
2023/04/27 02:41:57;;;;;;;5.68;3.63;;;3.20;99.90;;;;;;5014537;28;20084;-67
2023/04/27 02:44:23;;;;;;;5.70;3.72;;;3.10;99.90;;;;;;4996959;28;20053;-67
2023/04/27 02:46:49;;;;;;;6.38;3.58;;;3.00;99.90;;;;;;5015197;28;20058;-67
2023/04/27 02:49:15;;;;;;;6.78;3.65;;;3.00;99.90;;;;;;5014488;28;20030;-67
2023/04/27 02:51:41;;;;;;;7.05;3.47;;;3.00;99.90;;;;;;5014495;28;20033;-67
2023/04/27 02:54:08;;;;;;;7.28;3.53;;;3.00;99.90;;;;;;5014952;28;20410;-67
2023/04/27 02:56:34;;;;;;;6.95;3.85;;;3.00;99.90;;;;;;4996790;28;20034;-67
2023/04/27 02:58:59;;;;;;;6.90;3.38;;;3.00;99.90;;;;;;4996795;28;20048;-67
2023/04/27 03:01:25;;;;;;;5.25;3.30;;;3.00;99.90;;;;;;5014419;28;20037;-67
2023/04/27 03:03:51;;;;;;;9.15;3.35;;;3.00;99.90;;;;;;4996696;28;20061;-67
2023/04/27 03:06:16;;;;;;;6.03;3.20;;;3.00;99.90;;;;;;4996838;28;20026;-66
2023/04/27 03:08:42;;;;;;;8.82;3.58;;;3.00;99.90;;;;;;5014248;28;20029;-66
2023/04/27 03:11:08;;;;;;;7.97;3.53;;;3.00;99.90;;;;;;5014538;28;20041;-67
2023/04/27 03:13:40;;;;;;;9.32;3.50;;;3.00;99.90;;;;;;4996815;28;20040;-66
2023/04/27 03:16:07;;;;;;;10.90;3.67;;;3.00;99.90;;;;;;4996493;28;20121;-66
2023/04/27 03:18:33;;;;;;;6.53;2.90;;;3.00;99.90;;;;;;4996525;28;20519;-67
2023/04/27 03:21:09;;;;;;;9.25;4.20;;;3.00;99.90;;;;;;5013991;28;20037;-67
2023/04/27 03:23:35;;;;;;;7.35;3.88;;;2.90;99.90;;;;;;5014057;28;20028;-67
2023/04/27 03:26:08;;;;;;;11.65;4.28;;;2.90;99.90;;;;;;4996919;28;20116;-66
2023/04/27 03:28:34;;;;;;;5.40;3.63;;;2.90;99.90;;;;;;5013784;28;20057;-66
2023/04/27 03:31:04;;;;;;;6.28;3.58;;;2.90;99.90;;;;;;5014481;28;20025;-66
2023/04/27 03:33:30;;;;;;;11.85;4.03;;;2.90;99.90;;;;;;5018230;28;20029;-66
2023/04/27 03:35:56;;;;;;;7.97;3.42;;;2.90;99.90;;;;;;5000415;28;20092;-66
2023/04/27 03:38:23;;;;;;;8.98;4.18;;;2.90;99.90;;;;;;5017949;28;20030;-66
2023/04/27 03:40:49;;;;;;;6.35;3.58;;;2.90;99.90;;;;;;4999907;28;20095;-66
2023/04/27 03:43:15;;;;;;;12.50;4.05;;;2.90;99.90;;;;;;5000274;28;20026;-66
2023/04/27 03:45:40;;;;;;;8.98;3.78;;;2.90;99.90;;;;;;5017780;28;20064;-66
2023/04/27 03:48:06;;;;;;;11.45;5.03;;;3.00;99.90;;;;;;5017504;28;20022;-66
2023/04/27 03:50:32;;;;;;;10.85;3.72;;;3.00;99.90;;;;;;5000155;28;20028;-66
2023/04/27 03:52:58;;;;;;;9.80;4.30;;;3.00;99.90;;;;;;5000122;28;20458;-66
2023/04/27 03:55:24;;;;;;;8.85;3.88;;;3.00;99.90;;;;;;5017985;28;20102;-66
2023/04/27 03:57:50;;;;;;;10.77;3.45;;;3.10;99.90;;;;;;5017599;28;20018;-66
2023/04/27 04:00:17;;;;;;;7.72;3.45;;;3.30;99.90;;;;;;5017569;28;20350;-66
2023/04/27 04:02:43;;;;;;;8.65;3.45;;;3.10;99.90;;;;;;5017419;28;20120;-66
2023/04/27 04:05:10;;;;;;;10.63;3.53;;;3.10;99.90;;;;;;5017255;28;20022;-66
2023/04/27 04:07:36;;;;;;;8.18;3.58;;;3.20;99.90;;;;;;5017544;28;20148;-66
2023/04/27 04:10:03;;;;;;;8.32;3.63;;;3.20;99.90;;;;;;5007906;28;20084;-66
2023/04/27 04:12:28;;;;;;;3.88;3.50;;;3.30;99.90;;;;;;5017956;28;20033;-68
2023/04/27 04:14:54;;;;;;;9.13;4.40;;;3.30;99.90;;;;;;5017329;28;20370;-68
2023/04/27 04:17:20;;;;;;;7.35;3.65;;;3.40;99.90;;;;;;5017289;28;20022;-67
2023/04/27 04:19:46;;;;;;;5.55;3.35;;;3.50;99.90;;;;;;5015885;28;20037;-68
2023/04/27 04:22:11;;;;;;;5.03;3.78;;;3.50;99.90;;;;;;5017328;28;20034;-68
2023/04/27 04:24:38;;;;;;;6.45;3.60;;;3.60;99.90;;;;;;5015893;28;20160;-70
2023/04/27 04:27:04;;;;;;;6.32;3.33;;;3.70;99.90;;;;;;5016253;28;20125;-68
2023/04/27 04:29:30;;;;;;;5.85;3.45;;;3.80;99.90;;;;;;5016033;28;20508;-68
2023/04/27 04:31:56;;;;;;;11.60;4.22;;;3.80;99.90;;;;;;5015656;28;20030;-68
2023/04/27 04:34:22;;;;;;;6.53;3.38;;;3.80;99.90;;;;;;5015744;28;20084;-67
2023/04/27 04:36:50;;;;;;;6.53;3.40;;;3.90;99.90;;;;;;5015662;28;20025;-67
2023/04/27 04:39:19;;;;;;;6.85;3.47;;;3.90;99.90;;;;;;5015847;28;20113;-68
2023/04/27 04:41:45;;;;;;;4.78;3.60;;;4.00;99.90;;;;;;5016911;28;20092;-68
2023/04/27 04:44:11;;;;;;;11.98;4.10;;;4.00;99.90;;;;;;5015434;28;20030;-69
2023/04/27 04:46:37;;;;;;;7.50;3.83;;;4.10;99.90;;;;;;5034187;28;20045;-68
2023/04/27 04:49:03;;;;;;;9.30;3.88;;;4.20;99.90;;;;;;5036565;28;20117;-67
2023/04/27 04:51:29;;;;;;;7.57;4.07;;;4.30;99.90;;;;;;5018554;28;20034;-67
2023/04/27 04:53:55;;;;;;;8.45;3.30;;;4.50;99.90;;;;;;5036918;28;20021;-67
2023/04/27 04:56:21;;;;;;;7.13;3.80;;;4.50;99.90;;;;;;5036705;28;20112;-67
2023/04/27 04:58:46;;;;;;;8.23;3.65;;;4.70;99.90;;;;;;5018728;28;20029;-68
2023/04/27 05:01:12;;;;;;;7.72;4.07;;;4.70;99.90;;;;;;5018353;28;20041;-67
2023/04/27 05:03:37;;;;;;;7.85;3.72;;;4.70;99.90;;;;;;5018641;28;20412;-67
2023/04/27 05:06:03;;;;;;;8.48;4.18;;;4.90;99.90;;;;;;5018347;28;20029;-68
2023/04/27 05:08:29;;;;;;;7.95;3.78;;;4.90;99.90;;;;;;5018587;28;20029;-68
2023/04/27 05:10:55;;;;;;;8.07;4.15;;;5.10;99.90;;;;;;5035764;28;20025;-68
2023/04/27 05:13:21;;;;;;;7.93;4.20;;;4.90;99.90;;;;;;5035812;28;20064;-68
2023/04/27 05:15:47;;;;;;;9.00;3.85;;;5.00;99.90;;;;;;5035959;28;20025;-68
2023/04/27 05:18:13;;;;;;;11.48;4.80;;;5.00;99.90;;;;;;5018231;28;20032;-68
2023/04/27 05:20:38;;;;;;;8.90;4.30;;;5.00;99.90;;;;;;5036099;28;20053;-68
2023/04/27 05:23:04;;;;;;;13.20;4.97;;;5.00;99.90;;;;;;5018196;28;20032;-68
2023/04/27 05:25:33;;;;;;;12.45;4.90;;;5.10;99.90;;;;;;5035559;28;20381;-68
2023/04/27 05:27:59;;;;;;;10.68;4.95;;;5.10;99.90;;;;;;5017971;28;20029;-68
2023/04/27 05:30:26;;;;;;;10.10;4.50;;;5.00;99.90;;;;;;5017925;28;20025;-67
2023/04/27 05:32:51;;;;;;;11.50;5.05;;;5.10;99.90;;;;;;5035639;28;20061;-67
2023/04/27 05:35:17;;;;;;;6.43;4.13;;;5.20;99.90;;;;;;5035813;28;20047;-67
2023/04/27 05:37:43;;;;;;;12.02;5.25;;;5.30;99.90;;;;;;5017733;28;20056;-67
2023/04/27 05:40:09;;;;;;;9.40;4.80;;;5.40;99.90;;;;;;5017712;28;20029;-67
2023/04/27 05:42:35;;;;;;;11.38;5.80;;;5.60;99.90;;;;;;5035694;28;20038;-67
2023/04/27 05:45:02;;;;;;;12.90;4.85;;;5.80;99.90;;;;;;5017434;28;20056;-67
2023/04/27 05:47:27;;;;;;;9.43;4.30;;;6.10;99.90;;;;;;5017534;28;20056;-67
2023/04/27 05:49:53;;;;;;;10.43;4.35;;;6.40;99.90;;;;;;5035272;28;20021;-66
2023/04/27 05:52:20;;;;;;;9.32;3.88;;;6.70;99.90;;;;;;5017815;28;20063;-71
2023/04/27 05:54:47;;;;;;;6.28;3.05;;;7.00;99.90;;;;;;5017104;28;20108;-70
2023/04/27 05:57:12;;;;;;;9.55;3.92;;;7.40;99.90;;;;;;5015222;28;20103;-71
2023/04/27 05:59:38;;;;;;;11.25;3.63;;;7.60;99.90;;;;;;5014542;28;20041;-71
2023/04/27 06:02:04;;;;;;;12.27;3.75;;;7.70;99.90;;;;;;5013002;28;20041;-71
2023/04/27 06:04:31;;;;;;;7.78;2.92;;;7.80;99.90;;;;;;4998011;28;20028;-70
2023/04/27 06:06:57;;;;;;;5.25;2.97;;;7.90;99.90;;;;;;4996548;28;20145;-70
2023/04/27 06:09:23;;;;;;;5.65;2.75;;;8.00;99.90;;;;;;5015542;28;20046;-71
2023/04/27 06:11:48;;;;;;;6.00;2.95;;;8.10;99.90;;;;;;5014646;28;20041;-70
2023/04/27 06:14:15;;;;;;;8.05;3.28;;;8.40;99.90;;;;;;5015127;28;20018;-71
2023/04/27 06:16:40;;;;;;;3.30;2.55;;;8.60;99.90;;;;;;5014192;28;20028;-71
2023/04/27 06:19:06;;;;;;;7.25;2.88;;;8.80;99.90;;;;;;4996265;28;20436;-72
2023/04/27 06:21:35;;;;;;;9.10;3.38;;;8.90;99.90;;;;;;4995845;28;20554;-72
2023/04/27 06:24:01;;;;;;;4.30;2.92;;;9.00;99.90;;;;;;5013645;28;20034;-71
2023/04/27 06:26:27;;;;;;;4.30;2.88;;;9.20;99.90;;;;;;4997037;28;20030;-71
2023/04/27 06:28:54;;;;;;;5.88;2.88;;;9.30;99.90;;;;;;4997414;28;20026;-72
2023/04/27 06:31:20;;;;;;;7.82;3.42;;;9.50;99.80;;;;;;4988508;28;20569;-72
2023/04/27 06:33:45;;;;;;;8.73;3.38;;;9.60;99.00;;;;;;5000207;28;20057;-72
2023/04/27 06:36:11;;;;;;;7.30;3.30;;;9.80;98.80;;;;;;4996160;28;20377;-76
2023/04/27 06:38:37;;;;;;;6.95;2.95;;;9.90;98.20;;;;;;5002537;28;20457;-75
2023/04/27 06:41:03;;;;;;;6.97;3.17;;;10.00;97.60;;;;;;5035964;28;20492;-71
2023/04/27 06:43:29;;;;;;;8.07;2.92;;;10.20;97.00;;;;;;5031299;28;20057;-71
2023/04/27 06:45:55;;;;;;;6.13;3.00;;;10.30;95.40;;;;;;5034733;28;20469;-71
2023/04/27 06:48:21;;;;;;;8.90;3.08;;;10.50;95.00;;;;;;5021727;28;20034;-71
2023/04/27 06:50:46;;;;;;;6.60;2.70;;;10.60;93.70;;;;;;4995936;28;20388;-72
2023/04/27 06:53:12;;;;;;;4.63;3.03;;;;;;;;;;5014378;28;20036;-71
2023/04/27 06:55:38;;;;;;;7.25;3.45;;;10.70;86.80;;;;;;4997024;28;20018;-72
2023/04/27 06:58:04;;;;;;;11.07;3.03;;;10.70;86.40;;;;;;4996849;28;20033;-71
2023/04/27 07:00:30;;;;;;;4.78;2.60;;;11.00;85.70;;;;;;5014759;28;20431;-71
2023/04/27 07:02:56;;;;;;;8.45;2.80;;;11.20;80.30;;;;;;5013940;28;20026;-71
2023/04/27 07:05:22;;;;;;;4.47;1.70;;;11.60;77.20;;;;;;4997006;28;20022;-71
2023/04/27 07:07:48;;;;;;;6.40;2.10;;;11.70;71.20;;;;;;5013794;28;20462;-71
2023/04/27 07:10:14;;;;;;;4.50;1.90;;;11.70;69.80;;;;;;5013853;28;20348;-71
2023/04/27 07:12:40;;;;;;;7.68;2.40;;;11.80;70.40;;;;;;5014157;28;20469;-71
2023/04/27 07:15:07;;;;;;;4.13;1.70;;;11.70;67.20;;;;;;4996455;28;20453;-71
2023/04/27 07:17:32;;;;;;;5.75;2.00;;;11.80;67.30;;;;;;5014408;28;20400;-71
2023/04/27 07:20:00;;;;;;;5.85;2.55;;;11.90;65.90;;;;;;5014132;28;20105;-71
2023/04/27 07:22:25;;;;;;;5.13;2.00;;;11.90;64.40;;;;;;5013680;28;20034;-71
2023/04/27 07:24:51;;;;;;;11.10;2.25;;;12.00;64.70;;;;;;5014014;28;20101;-71
2023/04/27 07:27:17;;;;;;;7.95;2.20;;;12.00;64.30;;;;;;5014022;28;20022;-72
2023/04/27 07:29:43;;;;;;;7.50;2.10;;;12.20;63.80;;;;;;5013894;28;20021;-71
2023/04/27 07:32:09;;;;;;;5.40;1.77;;;12.40;64.00;;;;;;4996288;28;20030;-71
2023/04/27 07:34:35;;;;;;;6.60;2.28;;;12.40;61.20;;;;;;4996283;28;20017;-71
2023/04/27 07:37:01;;;;;;;5.63;2.20;;;12.50;62.00;;;;;;4996346;28;20037;-72
2023/04/27 07:39:27;;;;;;;5.82;2.30;;;12.40;60.00;;;;;;4996295;28;20029;-71
2023/04/27 07:41:53;;;;;;;8.48;2.22;;;12.50;60.30;;;;;;5013711;28;20034;-71
2023/04/27 07:44:20;;;;;;;8.75;2.30;;;12.40;59.30;;;;;;5013747;28;20131;-70
2023/04/27 07:46:47;;;;;;;4.85;2.35;;;12.30;59.60;;;;;;5014045;28;20057;-70
2023/04/27 07:49:14;;;;;;;4.68;2.22;;;12.30;60.20;;;;;;5013887;28;20072;-70
2023/04/27 07:51:39;;;;;;;5.45;2.15;;;12.30;57.40;;;;;;5014464;28;20037;-71
2023/04/27 07:54:05;;;;;;;8.95;2.33;;;12.10;57.80;;;;;;5013922;28;20438;-72
2023/04/27 07:56:31;;;;;;;7.00;2.28;;;12.20;59.00;;;;;;5014005;28;20430;-71
2023/04/27 07:58:57;;;;;;;5.05;1.92;;;12.40;58.90;;;;;;4995980;28;20533;-71
2023/04/27 08:01:23;;;;;;;6.47;2.20;;;12.60;58.30;;;;;;5013581;28;20105;-72
2023/04/27 08:03:49;;;;;;;8.13;2.35;;;12.60;55.60;;;;;;5013990;28;20413;-72
2023/04/27 08:06:16;;;;;;;3.85;2.13;;;12.80;56.50;;;;;;4996036;28;20535;-67
2023/04/27 08:08:41;;;;;;;9.40;3.55;;;12.90;56.00;;;;;;5013585;28;20022;-67
2023/04/27 08:11:11;;;;;;;5.72;2.42;;;13.20;55.80;;;;;;4995940;28;20052;-66
2023/04/27 08:13:37;;;;;;;6.90;1.92;;;13.40;56.20;;;;;;4995853;28;20454;-67
2023/04/27 08:16:03;;;;;;;3.15;1.60;;;13.50;53.80;;;;;;5012197;28;20053;-67
2023/04/27 08:18:28;;;;;;;4.97;2.05;;;13.40;54.40;;;;;;4998600;28;20029;-67
2023/04/27 08:20:54;;;;;;;6.55;2.03;;;13.50;54.40;;;;;;5017324;28;20072;-62
2023/04/27 08:23:20;;;;;;;7.15;2.33;;;13.60;54.80;;;;;;5017133;28;20032;-64
2023/04/27 08:25:47;;;;;;;5.65;2.13;;;13.70;54.50;;;;;;5017364;28;20025;-64
2023/04/27 08:28:14;;;;;;;6.07;2.20;;;13.80;54.40;;;;;;5015757;28;20442;-64
2023/04/27 08:30:41;;;;;;;6.70;2.30;;;13.60;52.30;;;;;;5017091;28;20373;-71
2023/04/27 08:33:07;;;;;;;5.18;1.98;;;13.60;52.10;;;;;;5016919;28;20014;-67
2023/04/27 08:35:33;;;;;;;5.32;2.33;;;13.50;51.30;;;;;;5016812;28;20500;-67
2023/04/27 08:37:59;;;;;;;6.88;2.40;;;13.40;50.80;;;;;;5016940;28;20030;-67
2023/04/27 08:40:24;;;;;;;4.70;2.03;;;13.20;51.60;;;;;;5016831;28;20025;-67
2023/04/27 08:42:55;;;;;;;6.07;2.03;;;13.50;51.60;;;;;;4999029;28;20037;-67
2023/04/27 08:45:26;;;;;;;6.65;1.95;;;14.10;51.00;;;;;;5016483;28;20125;-67
2023/04/27 08:47:52;;;;;;;4.32;1.80;;;14.50;50.90;;;;;;5016971;28;20072;-67
2023/04/27 08:50:18;;;;;;;5.15;1.70;;;14.90;49.10;;;;;;4999344;28;20466;-67
2023/04/27 08:52:48;;;;;;;4.47;2.25;;;15.30;49.20;;;;;;5016115;28;20029;-67
2023/04/27 08:55:14;;;;;;;6.93;1.85;;;15.30;47.30;;;;;;5016781;28;20393;-67
2023/04/27 08:57:39;;;;;;;7.72;1.90;;;15.60;48.30;;;;;;5016574;28;20057;-67
2023/04/27 09:00:12;;;;;;;7.82;2.70;;;15.70;47.50;;;;;;4998862;28;20021;-67
2023/04/27 09:02:45;;;;;;;15.00;2.50;;;15.80;47.00;;;;;;5016154;28;20034;-67
2023/04/27 09:05:21;;;;;;;3.83;1.85;;;16.00;46.60;;;;;;5016458;28;20093;-67
2023/04/27 09:08:04;;;;;;;8.80;2.17;;;15.60;46.20;;;;;;5016403;28;20084;-67
2023/04/27 09:10:41;;;;;;;12.38;2.40;;;15.40;47.50;;;;;;5007356;28;21328;-68
2023/04/27 09:13:07;;;;;;;5.57;1.75;;;15.60;47.80;;;;;;5003866;28;20032;-69
2023/04/27 09:15:41;;;;;;;23.45;4.07;;;15.90;46.10;;;;;;5004781;28;20026;-68
2023/04/27 09:18:21;;;;;;;7.40;2.00;;;15.70;45.60;;;;;;5003433;28;20026;-69
2023/04/27 09:20:49;;;;;;;5.05;2.20;;;15.10;45.50;;;;;;5005132;28;20038;-67
2023/04/27 09:23:34;;;;;;;4.80;2.20;;;14.80;46.40;;;;;;5004442;28;20074;-67
2023/04/27 09:26:02;;;;;;;7.78;2.40;;;14.80;47.20;;;;;;5005072;28;20065;-68
2023/04/27 09:28:31;;;;;;;6.03;1.90;;;15.60;46.80;;;;;;4987788;28;20034;-69
2023/04/27 09:30:59;;;;;;;15.68;2.85;;;16.20;45.50;;;;;;4992943;28;20052;-67
2023/04/27 09:33:27;;;;;;;10.37;2.13;;;16.70;45.50;;;;;;5016117;28;20037;-67
2023/04/27 09:35:53;;;;;;;4.30;2.35;;;16.70;43.50;;;;;;4998303;28;20257;-68
2023/04/27 09:38:20;;;;;;;6.57;2.25;;;17.00;43.00;;;;;;5015678;28;20029;-68
2023/04/27 09:40:48;;;;;;;8.85;2.00;;;17.20;43.30;;;;;;5015890;28;20076;-68
2023/04/27 09:43:14;;;;;;;4.93;1.92;;;17.30;42.90;;;;;;5015851;28;20056;-68
2023/04/27 09:45:40;;;;;;;3.63;1.88;;;17.50;42.10;;;;;;4998121;28;20393;-69
2023/04/27 09:48:06;;;;;;;3.47;1.70;;;17.70;41.20;;;;;;5015461;28;20021;-70
2023/04/27 09:50:36;;;;;;;5.47;2.13;;;17.90;42.30;;;;;;4997744;28;20022;-69
2023/04/27 09:53:04;;;;;;;6.47;2.30;;;17.70;41.80;;;;;;5015371;28;20073;-68
2023/04/27 09:55:36;;;;;;;4.22;2.00;;;17.50;42.00;;;;;;4998281;28;20029;-69
2023/04/27 09:58:20;;;;;;;41.22;5.55;;;17.40;42.10;;;;;;4998025;28;20076;-69
2023/04/27 10:00:57;;;;;;;6.18;2.38;;;17.60;41.80;;;;;;5015176;28;20100;-68
2023/04/27 10:03:31;;;;;;;7.95;2.38;;;17.10;40.90;;;;;;4997490;28;20472;-68
2023/04/27 10:06:09;;;;;;;6.30;2.08;;;16.90;41.90;;;;;;5015227;28;20018;-69
2023/04/27 10:08:35;;;;;;;3.78;2.10;;;17.40;42.70;;;;;;4997498;28;20466;-69
2023/04/27 10:11:11;;;;;;;6.28;2.60;;;17.30;40.90;;;;;;5014767;28;20109;-69
2023/04/27 10:13:37;;;;;;;4.97;2.17;;;17.70;41.50;;;;;;5015122;28;20025;-69
2023/04/27 10:16:16;;;;;;;6.15;2.13;;;18.20;39.70;;;;;;5014955;28;20072;-69
2023/04/27 10:18:52;;;;;;;5.72;2.30;;;18.40;39.50;;;;;;4997341;28;20479;-69
2023/04/27 10:21:17;;;;;;;4.10;1.95;;;18.30;39.80;;;;;;5014910;28;20034;-69
2023/04/27 10:23:49;;;;;;;4.88;1.70;;;17.70;40.30;;;;;;4997758;28;20033;-69
2023/04/27 10:26:26;;;;;;;5.85;2.10;;;17.90;40.20;;;;;;4997153;28;20421;-69
2023/04/27 10:29:06;;;;;;;5.88;2.00;;;17.90;39.90;;;;;;4997098;28;20022;-70
2023/04/27 10:31:32;;;;;;;6.78;2.00;;;17.70;39.60;;;;;;4996796;28;20034;-69
2023/04/27 10:34:08;;;;;;;6.45;2.03;;;18.00;40.40;;;;;;5014662;28;20033;-69
2023/04/27 10:36:40;;;;;;;5.32;1.83;;;18.40;40.10;;;;;;4997011;28;20033;-69
2023/04/27 10:39:26;;;;;;;4.45;1.80;;;18.80;39.60;;;;;;5014508;28;20026;-69
2023/04/27 10:41:53;;;;;;;6.35;2.17;;;19.10;38.30;;;;;;5014497;28;20030;-70
2023/04/27 10:44:30;;;;;;;3.42;2.00;;;19.10;37.70;;;;;;4996856;28;20022;-69
2023/04/27 10:47:00;;;;;;;5.55;2.45;;;18.60;39.40;;;;;;4997003;28;20493;-68
2023/04/27 10:49:30;;;;;;;5.70;2.03;;;18.60;39.40;;;;;;4996820;28;20030;-68
2023/04/27 10:52:03;;;;;;;6.47;2.05;;;18.70;39.90;;;;;;4996715;28;20115;-68
2023/04/27 10:54:30;;;;;;;5.18;1.77;;;18.70;38.10;;;;;;5014341;28;20030;-68
2023/04/27 10:57:06;;;;;;;6.50;1.80;;;18.60;39.50;;;;;;4996471;28;20022;-69
2023/04/27 10:59:33;;;;;;;7.60;2.13;;;20.50;40.00;;;;;;4997162;28;20030;-68
2023/04/27 11:01:59;;;;;;;3.63;2.08;;;19.30;38.70;;;;;;4996580;28;20034;-69
2023/04/27 11:04:35;;;;;;;6.65;2.53;;;19.30;37.60;;;;;;4996608;28;20033;-67
2023/04/27 11:07:03;;;;;;;5.10;1.92;;;18.50;37.10;;;;;;4996576;28;20113;-68
2023/04/27 11:09:29;;;;;;;3.88;1.92;;;18.00;38.80;;;;;;4996891;28;20025;-68
2023/04/27 11:11:55;;;;;;;3.78;1.83;;;17.70;39.40;;;;;;5014150;28;20065;-68
2023/04/27 11:14:21;;;;;;;2.78;1.77;;;17.70;39.30;;;;;;4996386;28;20061;-69
2023/04/27 11:16:47;;;;;;;3.35;1.90;;;17.70;39.30;;;;;;5014554;28;20034;-69
2023/04/27 11:19:13;;;;;;;5.25;1.90;;;17.80;38.50;;;;;;4996547;28;20080;-68
2023/04/27 11:21:40;;;;;;;6.63;2.00;;;17.80;39.30;;;;;;5013813;28;20076;-68
2023/04/27 11:24:07;;;;;;;5.32;1.85;;;17.60;39.50;;;;;;5013951;28;20029;-68
2023/04/27 11:26:33;;;;;;;16.13;2.28;;;17.10;40.50;;;;;;5013980;28;20030;-69
2023/04/27 11:29:00;;;;;;;9.00;2.35;;;17.20;41.50;;;;;;5013870;28;20037;-68
2023/04/27 11:31:39;;;;;;;5.18;1.90;;;17.30;41.00;;;;;;4996231;28;20033;-69
2023/04/27 11:34:06;;;;;;;5.93;2.20;;;17.30;40.50;;;;;;5013908;28;20038;-68
2023/04/27 11:36:32;;;;;;;4.45;1.80;;;17.00;40.40;;;;;;5013948;28;20081;-68
2023/04/27 11:38:58;;;;;;;4.13;1.80;;;17.10;41.10;;;;;;4996302;28;20030;-69
2023/04/27 11:41:38;;;;;;;3.20;1.70;;;17.10;41.60;;;;;;5013708;28;20474;-69
2023/04/27 11:44:07;;;;;;;4.82;1.75;;;17.30;40.50;;;;;;4996356;28;20099;-69
2023/04/27 11:46:35;;;;;;;5.40;2.20;;;17.10;40.10;;;;;;5013353;28;20069;-68
2023/04/27 11:49:05;;;;;;;5.68;1.80;;;17.30;40.10;;;;;;5013809;28;20030;-68
2023/04/27 11:51:32;;;;;;;5.38;1.70;;;17.70;39.90;;;;;;5013449;28;20363;-69
2023/04/27 11:54:07;;;;;;;6.32;2.13;;;18.30;38.10;;;;;;4999793;28;20034;-69
2023/04/27 11:56:40;;;;;;;5.97;1.42;;;18.90;37.20;;;;;;5017904;28;20100;-69
2023/04/27 11:59:21;;;;;;;3.03;1.60;;;19.40;36.70;;;;;;5017519;28;20026;-69
2023/04/27 12:01:47;;;;;;;3.47;1.63;;;20.30;37.40;;;;;;5017683;28;20036;-68
2023/04/27 12:04:13;;;;;;;7.57;1.85;;;21.70;34.90;;;;;;5017506;28;20108;-68
2023/04/27 12:06:39;;;;;;;9.15;2.08;;;22.50;34.60;;;;;;5017460;28;20021;-68
2023/04/27 12:09:05;;;;;;;4.78;1.70;;;22.00;32.40;;;;;;5017366;28;20037;-68
2023/04/27 12:11:32;;;;;;;4.30;1.50;;;21.20;32.60;;;;;;4999668;28;20030;-68
2023/04/27 12:13:57;;;;;;;3.67;2.35;;;21.20;34.40;;;;;;4999817;28;20032;-68
2023/04/27 12:16:23;;;;;;;4.78;1.90;;;21.80;33.50;;;;;;5016952;28;20385;-68
2023/04/27 12:18:49;;;;;;;3.65;1.85;;;21.60;34.10;;;;;;5016897;28;20467;-68
2023/04/27 12:21:15;;;;;;;7.75;1.83;;;20.80;33.40;;;;;;4999393;28;20038;-68
2023/04/27 12:23:41;;;;;;;5.75;2.03;;;20.20;35.10;;;;;;4999555;28;20125;-68
2023/04/27 12:26:07;;;;;;;4.80;1.52;;;20.70;35.00;;;;;;5017012;28;20061;-68
2023/04/27 12:28:33;;;;;;;2.05;1.70;;;21.50;33.80;;;;;;5017022;28;20109;-68
2023/04/27 12:30:58;;;;;;;5.63;1.42;;;22.60;31.60;;;;;;5016676;28;20072;-68
2023/04/27 12:33:24;;;;;;;4.05;1.30;;;23.20;31.10;;;;;;4999350;28;20026;-68
2023/04/27 12:35:50;;;;;;;6.32;2.08;;;23.80;30.80;;;;;;5016860;28;20030;-68
2023/04/27 12:38:16;;;;;;;3.03;1.90;;;24.60;30.20;;;;;;4999268;28;20022;-68
2023/04/27 12:40:42;;;;;;;3.85;2.17;;;23.40;29.90;;;;;;5016821;28;20030;-68
2023/04/27 12:43:08;;;;;;;5.55;1.90;;;23.30;31.30;;;;;;4998767;28;20375;-68
2023/04/27 12:45:34;;;;;;;7.45;1.85;;;23.50;31.80;;;;;;5016297;28;20049;-68
2023/04/27 12:48:00;;;;;;;3.10;1.80;;;24.00;30.90;;;;;;5016654;28;20037;-69
2023/04/27 12:50:25;;;;;;;5.65;2.38;;;24.00;29.70;;;;;;5016643;28;20383;-69